sensor_id;sensor_type;location;lat;lon;timestamp;pressure;altitude;pressure_sealevel;temperature;humidity
59289;BME280;45056;47.602;9.886;2022-07-12T00:02:25;93548.28;;;18.03;51.54
59289;BME280;45056;47.602;9.886;2022-07-12T00:04:53;93551.81;;;18.04;51.67
59289;BME280;45056;47.602;9.886;2022-07-12T00:07:20;93551.31;;;18.06;51.85
59289;BME280;45056;47.602;9.886;2022-07-12T00:09:48;93547.81;;;18.05;51.79
59289;BME280;45056;47.602;9.886;2022-07-12T00:12:18;93553.78;;;18.03;51.90
59289;BME280;45056;47.602;9.886;2022-07-12T00:14:46;93556.25;;;18.01;51.76
59289;BME280;45056;47.602;9.886;2022-07-12T00:17:14;93546.44;;;18.00;51.71
59289;BME280;45056;47.602;9.886;2022-07-12T00:19:43;93550.75;;;18.01;51.89
59289;BME280;45056;47.602;9.886;2022-07-12T00:22:10;93548.28;;;18.03;51.72
59289;BME280;45056;47.602;9.886;2022-07-12T00:24:38;93551.22;;;18.00;51.77
59289;BME280;45056;47.602;9.886;2022-07-12T00:27:07;93551.69;;;17.98;51.83
59289;BME280;45056;47.602;9.886;2022-07-12T00:29:36;93547.91;;;17.96;51.95
59289;BME280;45056;47.602;9.886;2022-07-12T00:32:04;93542.84;;;17.94;52.06
59289;BME280;45056;47.602;9.886;2022-07-12T00:34:34;93543.31;;;17.93;52.19
59289;BME280;45056;47.602;9.886;2022-07-12T00:37:02;93548.06;;;17.92;52.48
59289;BME280;45056;47.602;9.886;2022-07-12T00:39:31;93552.06;;;17.91;52.40
59289;BME280;45056;47.602;9.886;2022-07-12T00:41:59;93551.00;;;17.88;52.56
59289;BME280;45056;47.602;9.886;2022-07-12T00:44:27;93550.25;;;17.88;52.41
59289;BME280;45056;47.602;9.886;2022-07-12T00:46:58;93549.19;;;17.85;52.30
59289;BME280;45056;47.602;9.886;2022-07-12T00:49:26;93543.41;;;17.83;52.40
59289;BME280;45056;47.602;9.886;2022-07-12T00:51:54;93550.66;;;17.81;52.50
59289;BME280;45056;47.602;9.886;2022-07-12T00:54:23;93552.50;;;17.74;52.50
59289;BME280;45056;47.602;9.886;2022-07-12T00:56:51;93550.63;;;17.66;52.76
59289;BME280;45056;47.602;9.886;2022-07-12T00:59:19;93554.50;;;17.59;53.02
59289;BME280;45056;47.602;9.886;2022-07-12T01:01:47;93556.19;;;17.56;53.23
59289;BME280;45056;47.602;9.886;2022-07-12T01:04:17;93554.88;;;17.52;53.25
59289;BME280;45056;47.602;9.886;2022-07-12T01:06:45;93558.25;;;17.47;53.23
59289;BME280;45056;47.602;9.886;2022-07-12T01:09:13;93556.75;;;17.45;53.13
59289;BME280;45056;47.602;9.886;2022-07-12T01:11:41;93553.91;;;17.40;53.28
59289;BME280;45056;47.602;9.886;2022-07-12T01:14:11;93562.63;;;17.38;53.61
59289;BME280;45056;47.602;9.886;2022-07-12T01:16:40;93557.59;;;17.37;53.64
59289;BME280;45056;47.602;9.886;2022-07-12T01:19:13;93565.84;;;17.37;53.64
59289;BME280;45056;47.602;9.886;2022-07-12T01:21:50;93563.28;;;17.33;53.81
59289;BME280;45056;47.602;9.886;2022-07-12T01:24:23;93555.78;;;17.34;53.98
59289;BME280;45056;47.602;9.886;2022-07-12T01:26:51;93564.78;;;17.34;54.21
59289;BME280;45056;47.602;9.886;2022-07-12T01:29:20;93564.34;;;17.36;53.95
59289;BME280;45056;47.602;9.886;2022-07-12T01:31:48;93567.38;;;17.38;53.89
59289;BME280;45056;47.602;9.886;2022-07-12T01:34:18;93562.63;;;17.38;53.89
59289;BME280;45056;47.602;9.886;2022-07-12T01:36:48;93561.09;;;17.37;53.65
59289;BME280;45056;47.602;9.886;2022-07-12T01:39:17;93545.53;;;17.34;53.81
59289;BME280;45056;47.602;9.886;2022-07-12T01:41:46;93543.72;;;17.31;53.93
59289;BME280;45056;47.602;9.886;2022-07-12T01:44:14;93554.44;;;17.29;53.93
59289;BME280;45056;47.602;9.886;2022-07-12T01:46:42;93551.41;;;17.27;54.06
59289;BME280;45056;47.602;9.886;2022-07-12T01:49:10;93562.13;;;17.25;54.05
59289;BME280;45056;47.602;9.886;2022-07-12T01:51:38;93561.06;;;17.22;54.40
59289;BME280;45056;47.602;9.886;2022-07-12T01:54:07;93547.50;;;17.19;54.10
59289;BME280;45056;47.602;9.886;2022-07-12T01:56:36;93551.50;;;17.18;54.19
59289;BME280;45056;47.602;9.886;2022-07-12T01:59:05;93546.00;;;17.18;54.46
59289;BME280;45056;47.602;9.886;2022-07-12T02:01:35;93551.16;;;17.15;54.52
59289;BME280;45056;47.602;9.886;2022-07-12T02:04:04;93550.41;;;17.15;54.57
59289;BME280;45056;47.602;9.886;2022-07-12T02:06:33;93552.13;;;17.12;54.89
59289;BME280;45056;47.602;9.886;2022-07-12T02:09:02;93557.59;;;17.12;54.93
59289;BME280;45056;47.602;9.886;2022-07-12T02:11:30;93557.59;;;17.12;54.92
59289;BME280;45056;47.602;9.886;2022-07-12T02:13:58;93558.56;;;17.09;54.74
59289;BME280;45056;47.602;9.886;2022-07-12T02:16:28;93552.47;;;17.05;54.81
59289;BME280;45056;47.602;9.886;2022-07-12T02:18:56;93551.91;;;17.01;55.15
59289;BME280;45056;47.602;9.886;2022-07-12T02:21:24;93558.31;;;16.98;55.19
59289;BME280;45056;47.602;9.886;2022-07-12T02:23:52;93552.50;;;16.96;55.25
59289;BME280;45056;47.602;9.886;2022-07-12T02:26:20;93563.22;;;16.94;55.29
59289;BME280;45056;47.602;9.886;2022-07-12T02:28:48;93559.69;;;16.93;55.19
59289;BME280;45056;47.602;9.886;2022-07-12T02:31:16;93566.13;;;16.90;55.24
59289;BME280;45056;47.602;9.886;2022-07-12T02:33:45;93557.88;;;16.90;55.29
59289;BME280;45056;47.602;9.886;2022-07-12T02:36:13;93562.63;;;16.90;55.38
59289;BME280;45056;47.602;9.886;2022-07-12T02:38:41;93555.13;;;16.90;55.12
59289;BME280;45056;47.602;9.886;2022-07-12T02:41:09;93554.38;;;16.90;55.37
59289;BME280;45056;47.602;9.886;2022-07-12T02:43:37;93553.16;;;16.91;55.24
59289;BME280;45056;47.602;9.886;2022-07-12T02:46:08;93552.69;;;16.92;55.25
59289;BME280;45056;47.602;9.886;2022-07-12T02:48:38;93555.44;;;16.92;55.19
59289;BME280;45056;47.602;9.886;2022-07-12T02:51:09;93554.69;;;16.92;55.27
59289;BME280;45056;47.602;9.886;2022-07-12T02:53:37;93561.41;;;16.91;55.38
59289;BME280;45056;47.602;9.886;2022-07-12T02:56:06;93552.09;;;16.88;55.54
59289;BME280;45056;47.602;9.886;2022-07-12T02:58:35;93552.25;;;16.84;55.78
59289;BME280;45056;47.602;9.886;2022-07-12T03:01:04;93542.22;;;16.81;55.63
59289;BME280;45056;47.602;9.886;2022-07-12T03:03:32;93546.19;;;16.80;55.75
59289;BME280;45056;47.602;9.886;2022-07-12T03:06:00;93548.53;;;16.72;55.83
59289;BME280;45056;47.602;9.886;2022-07-12T03:08:30;93545.66;;;16.67;55.83
59289;BME280;45056;47.602;9.886;2022-07-12T03:10:58;93544.59;;;16.64;55.83
59289;BME280;45056;47.602;9.886;2022-07-12T03:13:26;93546.88;;;16.66;55.74
59289;BME280;45056;47.602;9.886;2022-07-12T03:15:54;93548.88;;;16.65;55.84
59289;BME280;45056;47.602;9.886;2022-07-12T03:18:22;93554.34;;;16.65;55.88
59289;BME280;45056;47.602;9.886;2022-07-12T03:20:49;93552.53;;;16.62;55.87
59289;BME280;45056;47.602;9.886;2022-07-12T03:23:18;93557.00;;;16.59;55.94
59289;BME280;45056;47.602;9.886;2022-07-12T03:25:47;93558.97;;;16.59;56.00
59289;BME280;45056;47.602;9.886;2022-07-12T03:28:15;93553.19;;;16.57;56.21
59289;BME280;45056;47.602;9.886;2022-07-12T03:30:43;93548.16;;;16.55;56.16
59289;BME280;45056;47.602;9.886;2022-07-12T03:33:11;93551.66;;;16.56;56.14
59289;BME280;45056;47.602;9.886;2022-07-12T03:35:39;93550.91;;;16.55;56.26
59289;BME280;45056;47.602;9.886;2022-07-12T03:38:07;93545.44;;;16.55;56.05
59289;BME280;45056;47.602;9.886;2022-07-12T03:40:35;93556.41;;;16.55;56.13
59289;BME280;45056;47.602;9.886;2022-07-12T03:43:05;93554.13;;;16.54;56.16
59289;BME280;45056;47.602;9.886;2022-07-12T03:45:33;93553.81;;;16.52;56.52
59289;BME280;45056;47.602;9.886;2022-07-12T03:48:01;93551.06;;;16.52;56.19
59289;BME280;45056;47.602;9.886;2022-07-12T03:50:29;93553.81;;;16.52;56.01
59289;BME280;45056;47.602;9.886;2022-07-12T03:52:57;93551.81;;;16.52;56.07
59289;BME280;45056;47.602;9.886;2022-07-12T03:55:25;93558.09;;;16.53;56.26
59289;BME280;45056;47.602;9.886;2022-07-12T03:57:53;93559.59;;;16.54;56.48
59289;BME280;45056;47.602;9.886;2022-07-12T04:00:22;93559.16;;;16.55;56.34
59289;BME280;45056;47.602;9.886;2022-07-12T04:02:50;93561.13;;;16.55;56.37
59289;BME280;45056;47.602;9.886;2022-07-12T04:05:20;93550.44;;;16.57;56.44
59289;BME280;45056;47.602;9.886;2022-07-12T04:07:52;93560.69;;;16.56;56.21
59289;BME280;45056;47.602;9.886;2022-07-12T04:10:21;93557.00;;;16.59;56.13
59289;BME280;45056;47.602;9.886;2022-07-12T04:12:49;93558.53;;;16.61;56.15
59289;BME280;45056;47.602;9.886;2022-07-12T04:15:17;93559.25;;;16.61;56.28
59289;BME280;45056;47.602;9.886;2022-07-12T04:17:46;93556.06;;;16.63;56.31
59289;BME280;45056;47.602;9.886;2022-07-12T04:20:14;93569.31;;;16.64;56.54
59289;BME280;45056;47.602;9.886;2022-07-12T04:22:42;93567.63;;;16.67;56.34
59289;BME280;45056;47.602;9.886;2022-07-12T04:25:10;93571.44;;;16.69;56.29
59289;BME280;45056;47.602;9.886;2022-07-12T04:27:38;93568.81;;;16.75;56.23
59289;BME280;45056;47.602;9.886;2022-07-12T04:30:07;93579.16;;;16.80;56.24
59289;BME280;45056;47.602;9.886;2022-07-12T04:32:36;93575.47;;;16.83;56.15
59289;BME280;45056;47.602;9.886;2022-07-12T04:35:06;93580.34;;;16.88;55.93
59289;BME280;45056;47.602;9.886;2022-07-12T04:37:34;93582.16;;;16.92;56.12
59289;BME280;45056;47.602;9.886;2022-07-12T04:40:03;93578.19;;;16.93;56.27
59289;BME280;45056;47.602;9.886;2022-07-12T04:42:32;93577.56;;;16.98;56.03
59289;BME280;45056;47.602;9.886;2022-07-12T04:45:00;93587.47;;;17.05;56.30
59289;BME280;45056;47.602;9.886;2022-07-12T04:47:28;93588.34;;;17.11;56.31
59289;BME280;45056;47.602;9.886;2022-07-12T04:49:56;93590.72;;;17.18;56.24
59289;BME280;45056;47.602;9.886;2022-07-12T04:52:25;93589.91;;;17.27;56.10
59289;BME280;45056;47.602;9.886;2022-07-12T04:54:53;93590.59;;;17.37;55.97
59289;BME280;45056;47.602;9.886;2022-07-12T04:57:21;93592.81;;;17.48;55.80
59289;BME280;45056;47.602;9.886;2022-07-12T04:59:49;93602.78;;;17.60;55.40
59289;BME280;45056;47.602;9.886;2022-07-12T05:02:17;93595.91;;;18.55;53.61
59289;BME280;45056;47.602;9.886;2022-07-12T05:04:45;93596.75;;;20.91;48.82
59289;BME280;45056;47.602;9.886;2022-07-12T05:07:13;93597.34;;;23.61;42.71
59289;BME280;45056;47.602;9.886;2022-07-12T05:09:42;93602.41;;;26.20;38.44
59289;BME280;45056;47.602;9.886;2022-07-12T05:12:10;93600.41;;;28.21;34.39
59289;BME280;45056;47.602;9.886;2022-07-12T05:14:38;93608.22;;;29.42;31.73
59289;BME280;45056;47.602;9.886;2022-07-12T05:17:06;93612.72;;;30.19;29.86
59289;BME280;45056;47.602;9.886;2022-07-12T05:19:34;93616.56;;;30.00;29.19
59289;BME280;45056;47.602;9.886;2022-07-12T05:22:03;93615.50;;;29.16;30.11
59289;BME280;45056;47.602;9.886;2022-07-12T05:24:31;93611.00;;;28.36;31.28
59289;BME280;45056;47.602;9.886;2022-07-12T05:27:01;93605.94;;;27.86;32.00
59289;BME280;45056;47.602;9.886;2022-07-12T05:29:29;93609.41;;;27.39;32.62
59289;BME280;45056;47.602;9.886;2022-07-12T05:31:57;93613.28;;;26.57;33.84
59289;BME280;45056;47.602;9.886;2022-07-12T05:34:25;93615.56;;;25.62;35.38
59289;BME280;45056;47.602;9.886;2022-07-12T05:36:53;93618.16;;;24.74;36.92
59289;BME280;45056;47.602;9.886;2022-07-12T05:39:21;93613.50;;;24.16;38.00
59289;BME280;45056;47.602;9.886;2022-07-12T05:41:49;93605.56;;;23.84;38.69
59289;BME280;45056;47.602;9.886;2022-07-12T05:44:19;93613.81;;;23.47;39.69
59289;BME280;45056;47.602;9.886;2022-07-12T05:46:47;93614.91;;;23.10;40.57
59289;BME280;45056;47.602;9.886;2022-07-12T05:49:15;93613.16;;;22.73;41.38
59289;BME280;45056;47.602;9.886;2022-07-12T05:51:43;93621.44;;;22.39;42.10
59289;BME280;45056;47.602;9.886;2022-07-12T05:54:28;93626.44;;;22.00;42.86
59289;BME280;45056;47.602;9.886;2022-07-12T05:56:56;93620.03;;;21.71;43.48
59289;BME280;45056;47.602;9.886;2022-07-12T05:59:26;93626.44;;;21.40;44.05
59289;BME280;45056;47.602;9.886;2022-07-12T06:01:55;93617.25;;;21.11;44.58
59289;BME280;45056;47.602;9.886;2022-07-12T06:04:23;93614.00;;;20.80;45.07
59289;BME280;45056;47.602;9.886;2022-07-12T06:06:51;93619.59;;;20.54;46.00
59289;BME280;45056;47.602;9.886;2022-07-12T06:09:19;93619.72;;;20.39;46.86
59289;BME280;45056;47.602;9.886;2022-07-12T06:11:47;93626.47;;;20.38;47.24
59289;BME280;45056;47.602;9.886;2022-07-12T06:14:15;93618.13;;;20.32;47.42
59289;BME280;45056;47.602;9.886;2022-07-12T06:16:44;93617.41;;;20.31;47.90
59289;BME280;45056;47.602;9.886;2022-07-12T06:19:12;93615.25;;;20.79;47.14
59289;BME280;45056;47.602;9.886;2022-07-12T06:21:40;93621.38;;;20.89;46.37
59289;BME280;45056;47.602;9.886;2022-07-12T06:24:08;93626.31;;;20.79;46.35
59289;BME280;45056;47.602;9.886;2022-07-12T06:26:36;93631.22;;;20.64;46.87
59289;BME280;45056;47.602;9.886;2022-07-12T06:29:04;93624.56;;;20.50;46.89
59289;BME280;45056;47.602;9.886;2022-07-12T06:31:32;93635.50;;;20.32;47.22
59289;BME280;45056;47.602;9.886;2022-07-12T06:34:03;93632.59;;;20.21;47.49
59289;BME280;45056;47.602;9.886;2022-07-12T06:36:31;93634.28;;;20.13;47.93
59289;BME280;45056;47.602;9.886;2022-07-12T06:38:59;93636.28;;;20.12;48.34
59289;BME280;45056;47.602;9.886;2022-07-12T06:41:27;93633.31;;;20.16;48.37
59289;BME280;45056;47.602;9.886;2022-07-12T06:43:55;93633.03;;;20.40;47.82
59289;BME280;45056;47.602;9.886;2022-07-12T06:46:23;93632.75;;;20.65;47.51
59289;BME280;45056;47.602;9.886;2022-07-12T06:48:51;93637.09;;;20.77;47.38
59289;BME280;45056;47.602;9.886;2022-07-12T06:51:20;93639.59;;;20.75;47.27
59289;BME280;45056;47.602;9.886;2022-07-12T06:53:48;93637.28;;;20.68;47.51
59289;BME280;45056;47.602;9.886;2022-07-12T06:56:16;93635.25;;;20.63;47.89
59289;BME280;45056;47.602;9.886;2022-07-12T06:58:44;93640.97;;;20.59;47.85
59289;BME280;45056;47.602;9.886;2022-07-12T07:01:12;93644.22;;;20.57;48.45
59289;BME280;45056;47.602;9.886;2022-07-12T07:03:40;93645.47;;;20.56;48.53
59289;BME280;45056;47.602;9.886;2022-07-12T07:06:08;93654.28;;;20.55;48.58
59289;BME280;45056;47.602;9.886;2022-07-12T07:08:37;93654.75;;;20.53;48.59
59289;BME280;45056;47.602;9.886;2022-07-12T07:11:05;93650.03;;;20.59;48.39
59289;BME280;45056;47.602;9.886;2022-07-12T07:13:33;93646.03;;;20.60;48.43
59289;BME280;45056;47.602;9.886;2022-07-12T07:16:02;93651.78;;;20.57;48.34
59289;BME280;45056;47.602;9.886;2022-07-12T07:18:29;93651.97;;;20.53;48.49
59289;BME280;45056;47.602;9.886;2022-07-12T07:20:57;93651.19;;;20.47;48.64
59289;BME280;45056;47.602;9.886;2022-07-12T07:23:25;93654.94;;;20.44;48.88
59289;BME280;45056;47.602;9.886;2022-07-12T07:25:55;93647.63;;;20.41;49.26
59289;BME280;45056;47.602;9.886;2022-07-12T07:28:23;93643.81;;;20.38;49.58
59289;BME280;45056;47.602;9.886;2022-07-12T07:30:51;93653.34;;;20.37;49.47
59289;BME280;45056;47.602;9.886;2022-07-12T07:33:22;93645.31;;;20.39;49.43
59289;BME280;45056;47.602;9.886;2022-07-12T07:35:51;93649.13;;;20.42;49.06
59289;BME280;45056;47.602;9.886;2022-07-12T07:38:20;93645.38;;;20.45;49.37
59289;BME280;45056;47.602;9.886;2022-07-12T07:40:48;93657.94;;;20.46;49.23
59289;BME280;45056;47.602;9.886;2022-07-12T07:43:17;93652.69;;;20.48;49.39
59289;BME280;45056;47.602;9.886;2022-07-12T07:45:45;93665.53;;;20.51;49.30
59289;BME280;45056;47.602;9.886;2022-07-12T07:48:13;93660.28;;;20.53;49.32
59289;BME280;45056;47.602;9.886;2022-07-12T07:50:41;93660.81;;;20.57;48.98
59289;BME280;45056;47.602;9.886;2022-07-12T07:53:09;93657.84;;;20.61;48.76
59289;BME280;45056;47.602;9.886;2022-07-12T07:55:37;93660.88;;;20.63;49.19
59289;BME280;45056;47.602;9.886;2022-07-12T07:58:05;93667.44;;;20.66;49.01
59289;BME280;45056;47.602;9.886;2022-07-12T08:00:35;93662.16;;;20.68;48.92
59289;BME280;45056;47.602;9.886;2022-07-12T08:03:03;93662.19;;;20.73;49.26
59289;BME280;45056;47.602;9.886;2022-07-12T08:05:31;93668.75;;;20.76;48.79
59289;BME280;45056;47.602;9.886;2022-07-12T08:07:59;93670.56;;;20.79;48.32
59289;BME280;45056;47.602;9.886;2022-07-12T08:10:27;93669.31;;;20.80;47.71
59289;BME280;45056;47.602;9.886;2022-07-12T08:12:55;93667.31;;;20.81;47.42
59289;BME280;45056;47.602;9.886;2022-07-12T08:15:23;93658.53;;;20.82;47.66
59289;BME280;45056;47.602;9.886;2022-07-12T08:17:52;93665.84;;;20.85;47.65
59289;BME280;45056;47.602;9.886;2022-07-12T08:20:20;93669.13;;;20.89;47.66
59289;BME280;45056;47.602;9.886;2022-07-12T08:22:49;93670.44;;;20.94;47.60
59289;BME280;45056;47.602;9.886;2022-07-12T08:25:17;93670.47;;;21.00;47.05
59289;BME280;45056;47.602;9.886;2022-07-12T08:27:45;93681.84;;;21.08;46.79
59289;BME280;45056;47.602;9.886;2022-07-12T08:30:13;93681.13;;;21.13;46.75
59289;BME280;45056;47.602;9.886;2022-07-12T08:32:45;93683.91;;;21.18;45.66
59289;BME280;45056;47.602;9.886;2022-07-12T08:35:15;93672.16;;;21.24;45.33
59289;BME280;45056;47.602;9.886;2022-07-12T08:37:43;93681.47;;;21.26;45.65
59289;BME280;45056;47.602;9.886;2022-07-12T08:40:11;93674.94;;;21.29;45.94
59289;BME280;45056;47.602;9.886;2022-07-12T08:42:40;93672.94;;;21.30;46.21
59289;BME280;45056;47.602;9.886;2022-07-12T08:45:10;93678.22;;;21.33;46.34
59289;BME280;45056;47.602;9.886;2022-07-12T08:47:38;93680.81;;;21.43;46.52
59289;BME280;45056;47.602;9.886;2022-07-12T08:50:16;93678.88;;;21.60;46.06
59289;BME280;45056;47.602;9.886;2022-07-12T08:52:46;93684.25;;;21.75;45.59
59289;BME280;45056;47.602;9.886;2022-07-12T08:55:19;93680.22;;;21.76;45.54
59289;BME280;45056;47.602;9.886;2022-07-12T08:57:49;93676.72;;;21.76;45.17
59289;BME280;45056;47.602;9.886;2022-07-12T09:00:19;93690.06;;;21.77;45.13
59289;BME280;45056;47.602;9.886;2022-07-12T09:02:50;93685.78;;;21.76;44.67
59289;BME280;45056;47.602;9.886;2022-07-12T09:05:22;93686.75;;;21.73;44.84
59289;BME280;45056;47.602;9.886;2022-07-12T09:08:01;93686.75;;;21.73;44.98
59289;BME280;45056;47.602;9.886;2022-07-12T09:10:31;93693.06;;;21.74;45.13
59289;BME280;45056;47.602;9.886;2022-07-12T09:12:59;93684.50;;;21.72;44.88
59289;BME280;45056;47.602;9.886;2022-07-12T09:15:28;93686.50;;;21.71;45.00
59289;BME280;45056;47.602;9.886;2022-07-12T09:17:57;93685.75;;;21.71;45.12
59289;BME280;45056;47.602;9.886;2022-07-12T09:20:30;93683.47;;;21.69;44.94
59289;BME280;45056;47.602;9.886;2022-07-12T09:23:02;93689.78;;;21.70;45.26
59289;BME280;45056;47.602;9.886;2022-07-12T09:25:32;93691.56;;;21.73;45.21
59289;BME280;45056;47.602;9.886;2022-07-12T09:28:04;93684.25;;;21.75;45.06
59289;BME280;45056;47.602;9.886;2022-07-12T09:30:36;93692.06;;;21.77;44.94
59289;BME280;45056;47.602;9.886;2022-07-12T09:33:18;93690.31;;;21.80;45.07
59289;BME280;45056;47.602;9.886;2022-07-12T09:36:06;93696.38;;;21.84;45.15
59289;BME280;45056;47.602;9.886;2022-07-12T09:38:36;93698.16;;;21.87;44.85
59289;BME280;45056;47.602;9.886;2022-07-12T09:41:06;93703.72;;;21.93;44.50
59289;BME280;45056;47.602;9.886;2022-07-12T09:43:35;93699.72;;;21.99;44.32
59289;BME280;45056;47.602;9.886;2022-07-12T09:46:04;93698.47;;;22.00;44.75
59289;BME280;45056;47.602;9.886;2022-07-12T09:48:33;93695.44;;;21.98;44.79
59289;BME280;45056;47.602;9.886;2022-07-12T09:51:04;93703.47;;;21.96;44.71
59289;BME280;45056;47.602;9.886;2022-07-12T09:53:38;93698.69;;;21.97;44.52
59289;BME280;45056;47.602;9.886;2022-07-12T09:56:12;93703.47;;;21.96;44.31
59289;BME280;45056;47.602;9.886;2022-07-12T09:58:52;93703.25;;;22.00;44.46
59289;BME280;45056;47.602;9.886;2022-07-12T10:01:22;93712.56;;;22.02;44.53
59289;BME280;45056;47.602;9.886;2022-07-12T10:03:52;93705.28;;;22.05;44.27
59289;BME280;45056;47.602;9.886;2022-07-12T10:06:25;93705.28;;;22.05;44.10
59289;BME280;45056;47.602;9.886;2022-07-12T10:08:54;93707.28;;;22.04;44.14
59289;BME280;45056;47.602;9.886;2022-07-12T10:11:23;93698.97;;;22.04;44.23
59289;BME280;45056;47.602;9.886;2022-07-12T10:13:53;93702.25;;;22.09;43.95
59289;BME280;45056;47.602;9.886;2022-07-12T10:16:25;93708.31;;;22.13;44.12
59289;BME280;45056;47.602;9.886;2022-07-12T10:19:24;93712.34;;;22.12;44.35
59289;BME280;45056;47.602;9.886;2022-07-12T10:21:56;93708.56;;;22.15;43.84
59289;BME280;45056;47.602;9.886;2022-07-12T10:24:45;93714.41;;;22.17;43.78
59289;BME280;45056;47.602;9.886;2022-07-12T10:27:30;93713.13;;;22.18;43.66
59289;BME280;45056;47.602;9.886;2022-07-12T10:30:40;93719.94;;;22.23;43.67
59289;BME280;45056;47.602;9.886;2022-07-12T10:33:25;93718.69;;;22.24;43.30
59289;BME280;45056;47.602;9.886;2022-07-12T10:36:17;93716.69;;;22.24;43.28
59289;BME280;45056;47.602;9.886;2022-07-12T10:39:25;93714.69;;;22.30;43.06
59289;BME280;45056;47.602;9.886;2022-07-12T10:42:24;93723.75;;;22.37;43.06
59289;BME280;45056;47.602;9.886;2022-07-12T10:45:44;93721.25;;;22.44;42.95
59289;BME280;45056;47.602;9.886;2022-07-12T10:48:33;93717.53;;;22.53;42.46
59289;BME280;45056;47.602;9.886;2022-07-12T10:51:26;93717.06;;;22.66;41.84
59289;BME280;45056;47.602;9.886;2022-07-12T10:54:21;93724.13;;;22.84;41.58
59289;BME280;45056;47.602;9.886;2022-07-12T11:00:41;93719.34;;;23.30;40.28
59289;BME280;45056;47.602;9.886;2022-07-12T11:04:04;93706.66;;;23.63;39.20
59289;BME280;45056;47.602;9.886;2022-07-12T11:07:42;93711.38;;;23.91;38.40
59289;BME280;45056;47.602;9.886;2022-07-12T11:10:56;93706.50;;;24.15;37.63
59289;BME280;45056;47.602;9.886;2022-07-12T11:13:25;93712.78;;;24.27;37.37
59289;BME280;45056;47.602;9.886;2022-07-12T11:15:56;93705.88;;;24.39;37.33
59289;BME280;45056;47.602;9.886;2022-07-12T11:18:28;93710.84;;;24.52;37.22
59289;BME280;45056;47.602;9.886;2022-07-12T11:20:57;93711.81;;;24.60;36.32
59289;BME280;45056;47.602;9.886;2022-07-12T11:23:25;93712.78;;;24.69;36.05
59289;BME280;45056;47.602;9.886;2022-07-12T11:25:56;93715.53;;;24.74;35.89
59289;BME280;45056;47.602;9.886;2022-07-12T11:28:28;93723.34;;;24.82;35.67
59289;BME280;45056;47.602;9.886;2022-07-12T11:31:02;93718.19;;;24.91;35.96
59289;BME280;45056;47.602;9.886;2022-07-12T11:33:33;93708.31;;;24.96;34.62
59289;BME280;45056;47.602;9.886;2022-07-12T11:36:04;93707.00;;;25.03;34.50
59289;BME280;45056;47.602;9.886;2022-07-12T11:38:35;93713.28;;;25.09;33.79
59289;BME280;45056;47.602;9.886;2022-07-12T11:41:07;93713.25;;;25.15;33.86
59289;BME280;45056;47.602;9.886;2022-07-12T11:43:37;93705.84;;;25.17;33.70
59289;BME280;45056;47.602;9.886;2022-07-12T11:46:07;93710.38;;;25.20;33.74
59289;BME280;45056;47.602;9.886;2022-07-12T11:48:37;93710.34;;;25.26;34.19
59289;BME280;45056;47.602;9.886;2022-07-12T11:51:07;93709.03;;;25.33;34.84
59289;BME280;45056;47.602;9.886;2022-07-12T11:53:37;93696.31;;;25.38;33.96
59289;BME280;45056;47.602;9.886;2022-07-12T11:56:09;93708.94;;;25.39;33.29
59289;BME280;45056;47.602;9.886;2022-07-12T11:58:38;93697.03;;;25.44;33.30
59289;BME280;45056;47.602;9.886;2022-07-12T12:01:10;93697.22;;;25.52;33.74
59289;BME280;45056;47.602;9.886;2022-07-12T12:03:43;93696.16;;;25.55;32.80
59289;BME280;45056;47.602;9.886;2022-07-12T12:06:13;93701.97;;;25.57;32.65
59289;BME280;45056;47.602;9.886;2022-07-12T12:08:42;93698.38;;;25.62;33.25
59289;BME280;45056;47.602;9.886;2022-07-12T12:11:12;93693.28;;;25.66;33.01
59289;BME280;45056;47.602;9.886;2022-07-12T12:13:41;93702.91;;;25.65;32.43
59289;BME280;45056;47.602;9.886;2022-07-12T12:16:10;93701.22;;;25.56;31.21
59289;BME280;45056;47.602;9.886;2022-07-12T12:18:39;93696.50;;;25.45;31.69
59289;BME280;45056;47.602;9.886;2022-07-12T12:21:11;93695.50;;;25.43;31.62
59289;BME280;45056;47.602;9.886;2022-07-12T12:23:41;93694.75;;;25.42;30.74
59289;BME280;45056;47.602;9.886;2022-07-12T12:26:16;93686.88;;;25.46;30.70
59289;BME280;45056;47.602;9.886;2022-07-12T12:28:48;93692.19;;;25.50;30.13
59289;BME280;45056;47.602;9.886;2022-07-12T12:31:20;93691.13;;;25.53;30.73
59289;BME280;45056;47.602;9.886;2022-07-12T12:33:51;93686.53;;;25.56;29.87
59289;BME280;45056;47.602;9.886;2022-07-12T12:36:22;93677.44;;;25.55;30.03
59289;BME280;45056;47.602;9.886;2022-07-12T12:38:54;93680.69;;;25.59;29.34
59289;BME280;45056;47.602;9.886;2022-07-12T12:41:26;93675.56;;;25.63;29.96
59289;BME280;45056;47.602;9.886;2022-07-12T12:43:58;93681.09;;;25.69;29.88
59289;BME280;45056;47.602;9.886;2022-07-12T12:46:43;93688.91;;;25.71;29.95
59289;BME280;45056;47.602;9.886;2022-07-12T12:49:17;93679.25;;;25.72;29.97
59289;BME280;45056;47.602;9.886;2022-07-12T12:51:53;93687.13;;;25.73;29.61
59289;BME280;45056;47.602;9.886;2022-07-12T12:54:32;93688.63;;;25.74;29.97
59289;BME280;45056;47.602;9.886;2022-07-12T12:57:04;93685.59;;;25.72;29.33
59289;BME280;45056;47.602;9.886;2022-07-12T12:59:34;93700.00;;;25.76;29.33
59289;BME280;45056;47.602;9.886;2022-07-12T13:02:04;93695.41;;;25.79;29.61
59289;BME280;45056;47.602;9.886;2022-07-12T13:04:35;93702.97;;;25.84;28.61
59289;BME280;45056;47.602;9.886;2022-07-12T13:07:05;93697.06;;;25.88;29.67
59289;BME280;45056;47.602;9.886;2022-07-12T13:09:33;93696.78;;;25.91;29.59
59289;BME280;45056;47.602;9.886;2022-07-12T13:12:03;93696.72;;;25.97;29.84
59289;BME280;45056;47.602;9.886;2022-07-12T13:14:32;93693.56;;;26.06;30.72
59289;BME280;45056;47.602;9.886;2022-07-12T13:17:02;93695.00;;;26.13;30.77
59289;BME280;45056;47.602;9.886;2022-07-12T13:19:30;93696.72;;;26.22;30.57
59289;BME280;45056;47.602;9.886;2022-07-12T13:21:58;93695.34;;;26.29;29.65
59289;BME280;45056;47.602;9.886;2022-07-12T13:24:26;93689.47;;;26.32;29.75